sensor_id;sensor_type;location;lat;lon;timestamp;temperature;humidity
68977;SHT31;56029;52.568;13.588;2024-02-14T00:00:04;1.75;99.99
68977;SHT31;56029;52.568;13.588;2024-02-14T00:02:30;1.74;99.99
68977;SHT31;56029;52.568;13.588;2024-02-14T00:04:56;1.71;99.99
68977;SHT31;56029;52.568;13.588;2024-02-14T00:07:21;1.60;99.99
68977;SHT31;56029;52.568;13.588;2024-02-14T00:09:47;1.60;99.99
68977;SHT31;56029;52.568;13.588;2024-02-14T00:12:13;1.53;99.99
68977;SHT31;56029;52.568;13.588;2024-02-14T00:14:39;1.50;99.99
68977;SHT31;56029;52.568;13.588;2024-02-14T00:17:04;1.47;99.99
68977;SHT31;56029;52.568;13.588;2024-02-14T00:19:30;1.44;99.99
68977;SHT31;56029;52.568;13.588;2024-02-14T00:21:55;1.43;99.99
68977;SHT31;56029;52.568;13.588;2024-02-14T00:24:21;1.40;99.99
68977;SHT31;56029;52.568;13.588;2024-02-14T00:26:46;1.42;99.99
68977;SHT31;56029;52.568;13.588;2024-02-14T00:29:12;1.38;99.99
68977;SHT31;56029;52.568;13.588;2024-02-14T00:31:37;1.42;99.99
68977;SHT31;56029;52.568;13.588;2024-02-14T00:34:03;1.39;99.99
68977;SHT31;56029;52.568;13.588;2024-02-14T00:36:28;1.36;99.99
68977;SHT31;56029;52.568;13.588;2024-02-14T00:38:54;1.38;99.99
68977;SHT31;56029;52.568;13.588;2024-02-14T00:41:20;1.35;99.99
68977;SHT31;56029;52.568;13.588;2024-02-14T00:43:46;1.33;99.99
68977;SHT31;56029;52.568;13.588;2024-02-14T00:46:17;1.32;99.99
68977;SHT31;56029;52.568;13.588;2024-02-14T00:48:43;1.32;99.99
68977;SHT31;56029;52.568;13.588;2024-02-14T00:51:08;1.36;99.99
68977;SHT31;56029;52.568;13.588;2024-02-14T00:53:34;1.33;99.99
68977;SHT31;56029;52.568;13.588;2024-02-14T00:55:59;1.36;99.99
68977;SHT31;56029;52.568;13.588;2024-02-14T00:58:25;1.40;99.99
68977;SHT31;56029;52.568;13.588;2024-02-14T01:00:50;1.40;99.99
68977;SHT31;56029;52.568;13.588;2024-02-14T01:03:16;1.40;99.99
68977;SHT31;56029;52.568;13.588;2024-02-14T01:05:41;1.40;99.99
68977;SHT31;56029;52.568;13.588;2024-02-14T01:08:07;1.40;99.99
68977;SHT31;56029;52.568;13.588;2024-02-14T01:10:32;1.39;99.99
68977;SHT31;56029;52.568;13.588;2024-02-14T01:12:58;1.36;99.99
68977;SHT31;56029;52.568;13.588;2024-02-14T01:15:23;1.35;99.99
68977;SHT31;56029;52.568;13.588;2024-02-14T01:17:49;1.35;99.99
68977;SHT31;56029;52.568;13.588;2024-02-14T01:20:14;1.38;99.99
68977;SHT31;56029;52.568;13.588;2024-02-14T01:22:40;1.36;99.99
68977;SHT31;56029;52.568;13.588;2024-02-14T01:25:06;1.36;99.99
68977;SHT31;56029;52.568;13.588;2024-02-14T01:27:31;1.36;99.99
68977;SHT31;56029;52.568;13.588;2024-02-14T01:29:57;1.35;99.99
68977;SHT31;56029;52.568;13.588;2024-02-14T01:32:22;1.33;99.99
68977;SHT31;56029;52.568;13.588;2024-02-14T01:34:48;1.32;99.99
68977;SHT31;56029;52.568;13.588;2024-02-14T01:37:14;1.28;99.99
68977;SHT31;56029;52.568;13.588;2024-02-14T01:39:39;1.29;99.99
68977;SHT31;56029;52.568;13.588;2024-02-14T01:42:05;1.28;99.99
68977;SHT31;56029;52.568;13.588;2024-02-14T01:44:30;1.25;99.99
68977;SHT31;56029;52.568;13.588;2024-02-14T01:46:56;1.22;99.99
68977;SHT31;56029;52.568;13.588;2024-02-14T01:49:22;1.18;99.99
68977;SHT31;56029;52.568;13.588;2024-02-14T01:51:48;1.16;99.99
68977;SHT31;56029;52.568;13.588;2024-02-14T01:54:14;1.13;99.99
68977;SHT31;56029;52.568;13.588;2024-02-14T01:56:40;1.15;99.99
68977;SHT31;56029;52.568;13.588;2024-02-14T01:59:06;1.13;99.99
68977;SHT31;56029;52.568;13.588;2024-02-14T02:01:33;1.12;99.99
68977;SHT31;56029;52.568;13.588;2024-02-14T02:03:58;1.13;99.99
68977;SHT31;56029;52.568;13.588;2024-02-14T02:06:24;1.13;99.99
68977;SHT31;56029;52.568;13.588;2024-02-14T02:08:49;1.12;99.99
68977;SHT31;56029;52.568;13.588;2024-02-14T02:11:15;1.13;99.99
68977;SHT31;56029;52.568;13.588;2024-02-14T02:13:40;1.09;99.99
68977;SHT31;56029;52.568;13.588;2024-02-14T02:16:06;1.11;99.99
68977;SHT31;56029;52.568;13.588;2024-02-14T02:18:32;1.12;99.99
68977;SHT31;56029;52.568;13.588;2024-02-14T02:20:57;1.15;99.99
68977;SHT31;56029;52.568;13.588;2024-02-14T02:23:23;1.16;99.99
68977;SHT31;56029;52.568;13.588;2024-02-14T02:25:49;1.16;99.99
68977;SHT31;56029;52.568;13.588;2024-02-14T02:28:15;1.19;99.99
68977;SHT31;56029;52.568;13.588;2024-02-14T02:30:40;1.16;99.99
68977;SHT31;56029;52.568;13.588;2024-02-14T02:33:06;1.16;99.99
68977;SHT31;56029;52.568;13.588;2024-02-14T02:35:31;1.13;99.99
68977;SHT31;56029;52.568;13.588;2024-02-14T02:37:57;1.15;99.99
68977;SHT31;56029;52.568;13.588;2024-02-14T02:40:23;1.16;99.99
68977;SHT31;56029;52.568;13.588;2024-02-14T02:42:49;1.15;99.99
68977;SHT31;56029;52.568;13.588;2024-02-14T02:45:14;1.13;99.99
68977;SHT31;56029;52.568;13.588;2024-02-14T02:47:40;1.16;99.99
68977;SHT31;56029;52.568;13.588;2024-02-14T02:50:06;1.12;99.99
68977;SHT31;56029;52.568;13.588;2024-02-14T02:52:31;1.13;99.99
68977;SHT31;56029;52.568;13.588;2024-02-14T02:54:57;1.11;99.99
68977;SHT31;56029;52.568;13.588;2024-02-14T02:57:23;1.09;99.99
68977;SHT31;56029;52.568;13.588;2024-02-14T02:59:48;1.08;99.99
68977;SHT31;56029;52.568;13.588;2024-02-14T03:02:15;1.08;99.99
68977;SHT31;56029;52.568;13.588;2024-02-14T03:04:40;1.09;99.99
68977;SHT31;56029;52.568;13.588;2024-02-14T03:07:06;1.09;99.99
68977;SHT31;56029;52.568;13.588;2024-02-14T03:09:32;1.09;99.99
68977;SHT31;56029;52.568;13.588;2024-02-14T03:11:58;1.12;99.99
68977;SHT31;56029;52.568;13.588;2024-02-14T03:14:23;1.11;99.99
68977;SHT31;56029;52.568;13.588;2024-02-14T03:16:49;1.12;99.99
68977;SHT31;56029;52.568;13.588;2024-02-14T03:19:14;1.16;99.99
68977;SHT31;56029;52.568;13.588;2024-02-14T03:21:40;1.16;99.99
68977;SHT31;56029;52.568;13.588;2024-02-14T03:24:06;1.16;99.99
68977;SHT31;56029;52.568;13.588;2024-02-14T03:26:31;1.18;99.99
68977;SHT31;56029;52.568;13.588;2024-02-14T03:28:57;1.21;99.99
68977;SHT31;56029;52.568;13.588;2024-02-14T03:31:22;1.21;99.99
68977;SHT31;56029;52.568;13.588;2024-02-14T03:33:48;1.25;99.99
68977;SHT31;56029;52.568;13.588;2024-02-14T03:36:13;1.22;99.99
68977;SHT31;56029;52.568;13.588;2024-02-14T03:38:39;1.23;99.99
68977;SHT31;56029;52.568;13.588;2024-02-14T03:41:04;1.21;99.99
68977;SHT31;56029;52.568;13.588;2024-02-14T03:43:30;1.26;99.99
68977;SHT31;56029;52.568;13.588;2024-02-14T03:45:55;1.31;99.99
68977;SHT31;56029;52.568;13.588;2024-02-14T03:48:21;1.29;99.99
68977;SHT31;56029;52.568;13.588;2024-02-14T03:50:47;1.29;99.99
68977;SHT31;56029;52.568;13.588;2024-02-14T03:53:12;1.28;99.99
68977;SHT31;56029;52.568;13.588;2024-02-14T03:55:38;1.26;99.99
68977;SHT31;56029;52.568;13.588;2024-02-14T03:58:03;1.31;99.99
68977;SHT31;56029;52.568;13.588;2024-02-14T04:00:29;1.33;99.99
68977;SHT31;56029;52.568;13.588;2024-02-14T04:02:54;1.36;99.99
68977;SHT31;56029;52.568;13.588;2024-02-14T04:05:20;1.36;99.99
68977;SHT31;56029;52.568;13.588;2024-02-14T04:07:45;1.35;99.99
68977;SHT31;56029;52.568;13.588;2024-02-14T04:10:11;1.43;99.99
68977;SHT31;56029;52.568;13.588;2024-02-14T04:12:36;1.43;99.99
68977;SHT31;56029;52.568;13.588;2024-02-14T04:15:02;1.42;99.99
68977;SHT31;56029;52.568;13.588;2024-02-14T04:17:27;1.46;99.99
68977;SHT31;56029;52.568;13.588;2024-02-14T04:19:53;1.47;99.99
68977;SHT31;56029;52.568;13.588;2024-02-14T04:22:18;1.49;99.99
68977;SHT31;56029;52.568;13.588;2024-02-14T04:24:44;1.52;99.99
68977;SHT31;56029;52.568;13.588;2024-02-14T04:27:10;1.53;99.99
68977;SHT31;56029;52.568;13.588;2024-02-14T04:29:35;1.57;99.99
68977;SHT31;56029;52.568;13.588;2024-02-14T04:32:01;1.60;99.99
68977;SHT31;56029;52.568;13.588;2024-02-14T04:34:27;1.64;99.99
68977;SHT31;56029;52.568;13.588;2024-02-14T04:36:52;1.68;99.99
68977;SHT31;56029;52.568;13.588;2024-02-14T04:39:18;1.74;99.99
68977;SHT31;56029;52.568;13.588;2024-02-14T04:41:43;1.78;99.99
68977;SHT31;56029;52.568;13.588;2024-02-14T04:44:09;1.84;99.99
68977;SHT31;56029;52.568;13.588;2024-02-14T04:46:34;1.93;99.99
68977;SHT31;56029;52.568;13.588;2024-02-14T04:49:01;1.95;99.99
68977;SHT31;56029;52.568;13.588;2024-02-14T04:51:26;2.04;99.99
68977;SHT31;56029;52.568;13.588;2024-02-14T04:53:52;2.10;99.99
68977;SHT31;56029;52.568;13.588;2024-02-14T04:56:17;2.14;99.99
68977;SHT31;56029;52.568;13.588;2024-02-14T04:58:43;2.18;99.99
68977;SHT31;56029;52.568;13.588;2024-02-14T05:01:08;2.24;99.99
68977;SHT31;56029;52.568;13.588;2024-02-14T05:03:34;2.24;99.99
68977;SHT31;56029;52.568;13.588;2024-02-14T05:06:00;2.26;99.99
68977;SHT31;56029;52.568;13.588;2024-02-14T05:08:25;2.32;99.99
68977;SHT31;56029;52.568;13.588;2024-02-14T05:10:51;2.35;99.99
68977;SHT31;56029;52.568;13.588;2024-02-14T05:13:16;2.38;99.99
68977;SHT31;56029;52.568;13.588;2024-02-14T05:15:42;2.41;99.99
68977;SHT31;56029;52.568;13.588;2024-02-14T05:18:08;2.43;99.99
68977;SHT31;56029;52.568;13.588;2024-02-14T05:20:33;2.46;99.99
68977;SHT31;56029;52.568;13.588;2024-02-14T05:22:59;2.48;99.99
68977;SHT31;56029;52.568;13.588;2024-02-14T05:25:24;2.50;99.99
68977;SHT31;56029;52.568;13.588;2024-02-14T05:27:50;2.50;99.99
68977;SHT31;56029;52.568;13.588;2024-02-14T05:30:15;2.52;99.99
68977;SHT31;56029;52.568;13.588;2024-02-14T05:32:41;2.53;99.99
68977;SHT31;56029;52.568;13.588;2024-02-14T05:35:07;2.54;99.99
68977;SHT31;56029;52.568;13.588;2024-02-14T05:37:32;2.59;99.99
68977;SHT31;56029;52.568;13.588;2024-02-14T05:39:58;2.60;99.99
68977;SHT31;56029;52.568;13.588;2024-02-14T05:42:23;2.62;99.99
68977;SHT31;56029;52.568;13.588;2024-02-14T05:44:49;2.63;99.99
68977;SHT31;56029;52.568;13.588;2024-02-14T05:47:15;2.66;99.99
68977;SHT31;56029;52.568;13.588;2024-02-14T05:49:41;2.64;99.99
68977;SHT31;56029;52.568;13.588;2024-02-14T05:52:07;2.67;99.99
68977;SHT31;56029;52.568;13.588;2024-02-14T05:54:33;2.66;99.99
68977;SHT31;56029;52.568;13.588;2024-02-14T05:56:59;2.67;99.99
68977;SHT31;56029;52.568;13.588;2024-02-14T05:59:24;2.69;99.99
68977;SHT31;56029;52.568;13.588;2024-02-14T06:01:50;2.67;99.99
68977;SHT31;56029;52.568;13.588;2024-02-14T06:04:16;2.67;99.99
68977;SHT31;56029;52.568;13.588;2024-02-14T06:06:42;2.67;99.99
68977;SHT31;56029;52.568;13.588;2024-02-14T06:09:07;2.69;99.99
68977;SHT31;56029;52.568;13.588;2024-02-14T06:11:33;2.70;99.99
68977;SHT31;56029;52.568;13.588;2024-02-14T06:13:58;2.70;99.99
68977;SHT31;56029;52.568;13.588;2024-02-14T06:16:24;2.72;99.99
68977;SHT31;56029;52.568;13.588;2024-02-14T06:18:49;2.75;99.99
68977;SHT31;56029;52.568;13.588;2024-02-14T06:21:15;2.76;99.99
68977;SHT31;56029;52.568;13.588;2024-02-14T06:23:40;2.77;99.99
68977;SHT31;56029;52.568;13.588;2024-02-14T06:26:07;2.80;99.99
68977;SHT31;56029;52.568;13.588;2024-02-14T06:28:32;2.83;99.99
68977;SHT31;56029;52.568;13.588;2024-02-14T06:30:58;2.86;99.99
68977;SHT31;56029;52.568;13.588;2024-02-14T06:33:23;2.84;99.99
68977;SHT31;56029;52.568;13.588;2024-02-14T06:35:49;2.91;99.99
68977;SHT31;56029;52.568;13.588;2024-02-14T06:38:14;2.93;99.99
68977;SHT31;56029;52.568;13.588;2024-02-14T06:40:40;3.00;99.99
68977;SHT31;56029;52.568;13.588;2024-02-14T06:43:05;3.03;99.99
68977;SHT31;56029;52.568;13.588;2024-02-14T06:45:31;3.07;99.99
68977;SHT31;56029;52.568;13.588;2024-02-14T06:47:56;3.10;99.94
68977;SHT31;56029;52.568;13.588;2024-02-14T06:50:22;3.15;99.88
68977;SHT31;56029;52.568;13.588;2024-02-14T06:52:47;3.18;99.74
68977;SHT31;56029;52.568;13.588;2024-02-14T06:55:13;3.22;99.69
68977;SHT31;56029;52.568;13.588;2024-02-14T06:57:38;3.28;99.33
68977;SHT31;56029;52.568;13.588;2024-02-14T07:00:05;3.35;99.29
68977;SHT31;56029;52.568;13.588;2024-02-14T07:02:30;3.35;99.07
68977;SHT31;56029;52.568;13.588;2024-02-14T07:04:56;3.38;99.26
68977;SHT31;56029;52.568;13.588;2024-02-14T07:07:21;3.42;98.76
68977;SHT31;56029;52.568;13.588;2024-02-14T07:09:47;3.46;98.95
68977;SHT31;56029;52.568;13.588;2024-02-14T07:12:12;3.52;98.65
68977;SHT31;56029;52.568;13.588;2024-02-14T07:14:38;3.55;98.44
68977;SHT31;56029;52.568;13.588;2024-02-14T07:17:04;3.58;98.45
68977;SHT31;56029;52.568;13.588;2024-02-14T07:19:29;3.59;98.50
68977;SHT31;56029;52.568;13.588;2024-02-14T07:21:55;3.62;98.51
68977;SHT31;56029;52.568;13.588;2024-02-14T07:24:20;3.69;98.44
68977;SHT31;56029;52.568;13.588;2024-02-14T07:26:46;3.69;98.37
68977;SHT31;56029;52.568;13.588;2024-02-14T07:29:11;3.72;98.38
68977;SHT31;56029;52.568;13.588;2024-02-14T07:31:37;3.76;98.39
68977;SHT31;56029;52.568;13.588;2024-02-14T07:34:02;3.78;98.17
68977;SHT31;56029;52.568;13.588;2024-02-14T07:36:29;3.86;98.18
68977;SHT31;56029;52.568;13.588;2024-02-14T07:38:54;3.94;97.81
68977;SHT31;56029;52.568;13.588;2024-02-14T07:41:19;3.97;97.73
68977;SHT31;56029;52.568;13.588;2024-02-14T07:43:45;4.03;97.65
68977;SHT31;56029;52.568;13.588;2024-02-14T07:46:10;4.08;97.39
68977;SHT31;56029;52.568;13.588;2024-02-14T07:48:36;4.10;97.29
68977;SHT31;56029;52.568;13.588;2024-02-14T07:51:02;4.17;97.64
68977;SHT31;56029;52.568;13.588;2024-02-14T07:53:27;4.22;97.42
68977;SHT31;56029;52.568;13.588;2024-02-14T07:55:53;4.28;97.60
68977;SHT31;56029;52.568;13.588;2024-02-14T07:58:18;4.31;97.38
68977;SHT31;56029;52.568;13.588;2024-02-14T08:00:44;4.37;97.11
68977;SHT31;56029;52.568;13.588;2024-02-14T08:03:09;4.42;96.93
68977;SHT31;56029;52.568;13.588;2024-02-14T08:05:35;4.45;96.28
68977;SHT31;56029;52.568;13.588;2024-02-14T08:08:00;4.51;96.56
68977;SHT31;56029;52.568;13.588;2024-02-14T08:10:26;4.57;96.10
68977;SHT31;56029;52.568;13.588;2024-02-14T08:12:52;4.62;95.83
68977;SHT31;56029;52.568;13.588;2024-02-14T08:15:17;4.66;96.01
68977;SHT31;56029;52.568;13.588;2024-02-14T08:17:43;4.75;95.56
68977;SHT31;56029;52.568;13.588;2024-02-14T08:20:08;4.78;95.51
68977;SHT31;56029;52.568;13.588;2024-02-14T08:22:34;4.85;95.37
68977;SHT31;56029;52.568;13.588;2024-02-14T08:24:59;4.86;95.36
68977;SHT31;56029;52.568;13.588;2024-02-14T08:27:25;4.96;95.48
68977;SHT31;56029;52.568;13.588;2024-02-14T08:29:50;5.00;95.40
68977;SHT31;56029;52.568;13.588;2024-02-14T08:32:16;5.10;95.08
68977;SHT31;56029;52.568;13.588;2024-02-14T08:34:41;5.16;95.24
68977;SHT31;56029;52.568;13.588;2024-02-14T08:37:07;5.26;95.42
68977;SHT31;56029;52.568;13.588;2024-02-14T08:39:32;5.30;95.02
68977;SHT31;56029;52.568;13.588;2024-02-14T08:41:58;5.34;94.83
68977;SHT31;56029;52.568;13.588;2024-02-14T08:44:23;5.36;94.48
68977;SHT31;56029;52.568;13.588;2024-02-14T08:46:49;5.43;95.20
68977;SHT31;56029;52.568;13.588;2024-02-14T08:49:14;5.43;95.03
68977;SHT31;56029;52.568;13.588;2024-02-14T08:51:40;5.44;94.67
68977;SHT31;56029;52.568;13.588;2024-02-14T08:54:06;5.48;94.26
68977;SHT31;56029;52.568;13.588;2024-02-14T08:56:32;5.50;95.19
68977;SHT31;56029;52.568;13.588;2024-02-14T08:58:58;5.52;94.86
68977;SHT31;56029;52.568;13.588;2024-02-14T09:01:23;5.55;95.06
68977;SHT31;56029;52.568;13.588;2024-02-14T09:03:49;5.61;94.65
68977;SHT31;56029;52.568;13.588;2024-02-14T09:06:16;5.61;95.30
68977;SHT31;56029;52.568;13.588;2024-02-14T09:08:43;5.64;95.57
68977;SHT31;56029;52.568;13.588;2024-02-14T09:11:09;5.66;95.71
68977;SHT31;56029;52.568;13.588;2024-02-14T09:13:34;5.71;95.66
68977;SHT31;56029;52.568;13.588;2024-02-14T09:16:00;5.79;95.83
68977;SHT31;56029;52.568;13.588;2024-02-14T09:18:25;5.74;95.68
68977;SHT31;56029;52.568;13.588;2024-02-14T09:20:51;5.85;95.42
68977;SHT31;56029;52.568;13.588;2024-02-14T09:23:17;5.85;95.43
68977;SHT31;56029;52.568;13.588;2024-02-14T09:25:42;5.94;95.97
68977;SHT31;56029;52.568;13.588;2024-02-14T09:28:08;5.94;96.07
68977;SHT31;56029;52.568;13.588;2024-02-14T09:30:34;6.02;95.39
68977;SHT31;56029;52.568;13.588;2024-02-14T09:32:59;6.01;95.62
68977;SHT31;56029;52.568;13.588;2024-02-14T09:35:25;6.02;95.59
68977;SHT31;56029;52.568;13.588;2024-02-14T09:37:50;6.02;95.41
68977;SHT31;56029;52.568;13.588;2024-02-14T09:40:16;6.06;95.86
68977;SHT31;56029;52.568;13.588;2024-02-14T09:42:44;6.05;96.34
68977;SHT31;56029;52.568;13.588;2024-02-14T09:45:10;6.09;96.12
68977;SHT31;56029;52.568;13.588;2024-02-14T09:47:37;6.10;96.24
68977;SHT31;56029;52.568;13.588;2024-02-14T09:50:03;6.09;96.30
68977;SHT31;56029;52.568;13.588;2024-02-14T09:52:31;6.10;96.71
68977;SHT31;56029;52.568;13.588;2024-02-14T09:54:57;6.20;97.07
68977;SHT31;56029;52.568;13.588;2024-02-14T09:57:23;6.27;97.11
68977;SHT31;56029;52.568;13.588;2024-02-14T09:59:50;6.29;96.51
68977;SHT31;56029;52.568;13.588;2024-02-14T10:02:15;6.33;96.73
68977;SHT31;56029;52.568;13.588;2024-02-14T10:04:41;6.27;97.05
68977;SHT31;56029;52.568;13.588;2024-02-14T10:07:06;6.33;97.46
68977;SHT31;56029;52.568;13.588;2024-02-14T10:09:40;6.38;97.38
68977;SHT31;56029;52.568;13.588;2024-02-14T10:12:06;6.44;97.43
68977;SHT31;56029;52.568;13.588;2024-02-14T10:14:31;6.40;97.86
68977;SHT31;56029;52.568;13.588;2024-02-14T10:16:57;6.43;97.75
68977;SHT31;56029;52.568;13.588;2024-02-14T10:19:22;6.48;97.86
68977;SHT31;56029;52.568;13.588;2024-02-14T10:22:00;6.47;98.26
68977;SHT31;56029;52.568;13.588;2024-02-14T10:24:27;6.51;98.42
68977;SHT31;56029;52.568;13.588;2024-02-14T10:26:53;6.57;98.44
68977;SHT31;56029;52.568;13.588;2024-02-14T10:29:22;6.67;98.69
68977;SHT31;56029;52.568;13.588;2024-02-14T10:31:47;6.77;98.87
68977;SHT31;56029;52.568;13.588;2024-02-14T10:34:13;6.87;98.51
68977;SHT31;56029;52.568;13.588;2024-02-14T10:36:39;6.91;98.77
68977;SHT31;56029;52.568;13.588;2024-02-14T10:39:06;7.05;99.00
68977;SHT31;56029;52.568;13.588;2024-02-14T10:41:33;7.08;98.79
68977;SHT31;56029;52.568;13.588;2024-02-14T10:43:59;7.13;99.02
68977;SHT31;56029;52.568;13.588;2024-02-14T10:46:25;7.13;98.98
68977;SHT31;56029;52.568;13.588;2024-02-14T10:48:58;7.24;99.08
68977;SHT31;56029;52.568;13.588;2024-02-14T10:51:25;7.30;98.93
68977;SHT31;56029;52.568;13.588;2024-02-14T10:53:51;7.22;98.86
68977;SHT31;56029;52.568;13.588;2024-02-14T10:56:18;7.22;99.12
68977;SHT31;56029;52.568;13.588;2024-02-14T10:58:46;7.23;99.51
68977;SHT31;56029;52.568;13.588;2024-02-14T11:01:13;7.29;99.31
68977;SHT31;56029;52.568;13.588;2024-02-14T11:03:39;7.43;99.23
68977;SHT31;56029;52.568;13.588;2024-02-14T11:06:04;7.53;98.55
68977;SHT31;56029;52.568;13.588;2024-02-14T11:08:30;7.67;99.00
68977;SHT31;56029;52.568;13.588;2024-02-14T11:10:56;7.73;98.58
68977;SHT31;56029;52.568;13.588;2024-02-14T11:13:26;7.81;98.32
68977;SHT31;56029;52.568;13.588;2024-02-14T11:15:52;7.87;97.96
68977;SHT31;56029;52.568;13.588;2024-02-14T11:18:27;7.94;98.24
68977;SHT31;56029;52.568;13.588;2024-02-14T11:20:53;8.13;98.22
68977;SHT31;56029;52.568;13.588;2024-02-14T11:23:22;8.30;98.71
68977;SHT31;56029;52.568;13.588;2024-02-14T11:25:47;8.45;97.28
68977;SHT31;56029;52.568;13.588;2024-02-14T11:30:40;8.39;96.99
68977;SHT31;56029;52.568;13.588;2024-02-14T11:33:21;8.33;96.65
68977;SHT31;56029;52.568;13.588;2024-02-14T11:35:48;8.40;97.03
68977;SHT31;56029;52.568;13.588;2024-02-14T11:38:14;8.46;97.51
68977;SHT31;56029;52.568;13.588;2024-02-14T11:40:39;8.42;97.36
68977;SHT31;56029;52.568;13.588;2024-02-14T11:43:10;8.26;97.30
68977;SHT31;56029;52.568;13.588;2024-02-14T11:45:36;8.06;98.73
68977;SHT31;56029;52.568;13.588;2024-02-14T11:48:01;8.06;99.29
68977;SHT31;56029;52.568;13.588;2024-02-14T11:50:27;7.99;99.14
68977;SHT31;56029;52.568;13.588;2024-02-14T11:52:53;7.91;99.17
68977;SHT31;56029;52.568;13.588;2024-02-14T11:55:27;7.91;99.70
68977;SHT31;56029;52.568;13.588;2024-02-14T11:57:53;7.84;99.99
68977;SHT31;56029;52.568;13.588;2024-02-14T12:00:18;7.78;99.97
68977;SHT31;56029;52.568;13.588;2024-02-14T12:02:44;7.77;99.99
68977;SHT31;56029;52.568;13.588;2024-02-14T12:05:10;7.82;99.99
68977;SHT31;56029;52.568;13.588;2024-02-14T12:07:36;7.78;99.99
68977;SHT31;56029;52.568;13.588;2024-02-14T12:10:01;7.85;99.96
68977;SHT31;56029;52.568;13.588;2024-02-14T12:12:28;7.78;99.99
68977;SHT31;56029;52.568;13.588;2024-02-14T12:14:53;7.77;99.99
68977;SHT31;56029;52.568;13.588;2024-02-14T12:17:19;7.82;99.99
68977;SHT31;56029;52.568;13.588;2024-02-14T12:19:44;7.75;99.99
68977;SHT31;56029;52.568;13.588;2024-02-14T12:22:10;7.74;99.99
68977;SHT31;56029;52.568;13.588;2024-02-14T12:24:36;7.77;99.99
68977;SHT31;56029;52.568;13.588;2024-02-14T12:27:01;7.71;99.99
68977;SHT31;56029;52.568;13.588;2024-02-14T12:29:29;7.73;99.99
68977;SHT31;56029;52.568;13.588;2024-02-14T12:32:05;7.74;99.99
68977;SHT31;56029;52.568;13.588;2024-02-14T12:34:32;7.81;99.99
68977;SHT31;56029;52.568;13.588;2024-02-14T12:36:57;7.85;99.99
68977;SHT31;56029;52.568;13.588;2024-02-14T12:39:23;7.88;99.99
68977;SHT31;56029;52.568;13.588;2024-02-14T12:41:49;7.95;99.99
68977;SHT31;56029;52.568;13.588;2024-02-14T12:44:14;8.03;99.99
68977;SHT31;56029;52.568;13.588;2024-02-14T12:46:40;8.02;99.99
68977;SHT31;56029;52.568;13.588;2024-02-14T12:49:05;8.01;99.99
68977;SHT31;56029;52.568;13.588;2024-02-14T12:51:31;8.09;99.99
68977;SHT31;56029;52.568;13.588;2024-02-14T12:53:56;8.01;99.99
68977;SHT31;56029;52.568;13.588;2024-02-14T12:56:22;8.08;99.99
68977;SHT31;56029;52.568;13.588;2024-02-14T12:58:47;8.08;99.99
68977;SHT31;56029;52.568;13.588;2024-02-14T13:01:13;8.08;99.99
68977;SHT31;56029;52.568;13.588;2024-02-14T13:03:38;8.11;99.99
68977;SHT31;56029;52.568;13.588;2024-02-14T13:06:04;8.18;99.99
68977;SHT31;56029;52.568;13.588;2024-02-14T13:08:30;8.21;99.99
68977;SHT31;56029;52.568;13.588;2024-02-14T13:10:55;8.16;99.99
68977;SHT31;56029;52.568;13.588;2024-02-14T13:13:21;8.18;99.99
68977;SHT31;56029;52.568;13.588;2024-02-14T13:15:46;8.22;99.99
68977;SHT31;56029;52.568;13.588;2024-02-14T13:18:12;8.19;99.99
68977;SHT31;56029;52.568;13.588;2024-02-14T13:20:37;8.28;99.99
68977;SHT31;56029;52.568;13.588;2024-02-14T13:23:03;8.30;99.99
68977;SHT31;56029;52.568;13.588;2024-02-14T13:25:29;8.35;99.99
68977;SHT31;56029;52.568;13.588;2024-02-14T13:27:54;8.43;99.99
68977;SHT31;56029;52.568;13.588;2024-02-14T13:30:20;8.42;99.99
68977;SHT31;56029;52.568;13.588;2024-02-14T13:32:46;8.36;99.99
68977;SHT31;56029;52.568;13.588;2024-02-14T13:35:11;8.38;99.99
68977;SHT31;56029;52.568;13.588;2024-02-14T13:37:38;8.38;99.99
68977;SHT31;56029;52.568;13.588;2024-02-14T13:40:05;8.43;99.99
68977;SHT31;56029;52.568;13.588;2024-02-14T13:42:30;8.42;99.99
68977;SHT31;56029;52.568;13.588;2024-02-14T13:44:56;8.35;99.99
68977;SHT31;56029;52.568;13.588;2024-02-14T13:47:21;8.30;99.99
68977;SHT31;56029;52.568;13.588;2024-02-14T13:49:47;8.29;99.99
68977;SHT31;56029;52.568;13.588;2024-02-14T13:52:12;8.28;99.99
68977;SHT31;56029;52.568;13.588;2024-02-14T13:54:38;8.35;99.99
68977;SHT31;56029;52.568;13.588;2024-02-14T13:57:04;8.39;99.99
68977;SHT31;56029;52.568;13.588;2024-02-14T13:59:29;8.39;99.99
68977;SHT31;56029;52.568;13.588;2024-02-14T14:01:55;8.43;99.99
68977;SHT31;56029;52.568;13.588;2024-02-14T14:04:21;8.42;99.99
68977;SHT31;56029;52.568;13.588;2024-02-14T14:06:47;8.38;99.99
68977;SHT31;56029;52.568;13.588;2024-02-14T14:09:13;8.39;99.99
68977;SHT31;56029;52.568;13.588;2024-02-14T14:11:38;8.43;99.99
68977;SHT31;56029;52.568;13.588;2024-02-14T14:14:05;8.43;99.99
68977;SHT31;56029;52.568;13.588;2024-02-14T14:16:30;8.40;99.99
68977;SHT31;56029;52.568;13.588;2024-02-14T14:18:56;8.46;99.99
68977;SHT31;56029;52.568;13.588;2024-02-14T14:21:21;8.46;99.99
68977;SHT31;56029;52.568;13.588;2024-02-14T14:23:47;8.43;99.99
68977;SHT31;56029;52.568;13.588;2024-02-14T14:26:12;8.45;99.99
68977;SHT31;56029;52.568;13.588;2024-02-14T14:28:38;8.45;99.99
68977;SHT31;56029;52.568;13.588;2024-02-14T14:31:04;8.46;99.99
68977;SHT31;56029;52.568;13.588;2024-02-14T14:33:29;8.46;99.99
68977;SHT31;56029;52.568;13.588;2024-02-14T14:35:55;8.46;99.99
68977;SHT31;56029;52.568;13.588;2024-02-14T14:38:21;8.45;99.99
68977;SHT31;56029;52.568;13.588;2024-02-14T14:40:47;8.48;99.99
68977;SHT31;56029;52.568;13.588;2024-02-14T14:43:13;8.49;99.99
68977;SHT31;56029;52.568;13.588;2024-02-14T14:45:39;8.50;99.99
68977;SHT31;56029;52.568;13.588;2024-02-14T14:48:05;8.53;99.99
68977;SHT31;56029;52.568;13.588;2024-02-14T14:50:31;8.52;99.99
68977;SHT31;56029;52.568;13.588;2024-02-14T14:52:57;8.49;99.99
68977;SHT31;56029;52.568;13.588;2024-02-14T14:55:24;8.52;99.99
68977;SHT31;56029;52.568;13.588;2024-02-14T14:57:49;8.50;99.99
68977;SHT31;56029;52.568;13.588;2024-02-14T15:00:15;8.50;99.99
68977;SHT31;56029;52.568;13.588;2024-02-14T15:02:41;8.54;99.99
68977;SHT31;56029;52.568;13.588;2024-02-14T15:05:09;8.52;99.99
68977;SHT31;56029;52.568;13.588;2024-02-14T15:07:35;8.56;99.99
68977;SHT31;56029;52.568;13.588;2024-02-14T15:10:00;8.60;99.99
68977;SHT31;56029;52.568;13.588;2024-02-14T15:12:26;8.67;99.99
68977;SHT31;56029;52.568;13.588;2024-02-14T15:14:52;8.70;99.99
68977;SHT31;56029;52.568;13.588;2024-02-14T15:17:19;8.80;99.99
68977;SHT31;56029;52.568;13.588;2024-02-14T15:19:44;8.74;99.99
68977;SHT31;56029;52.568;13.588;2024-02-14T15:22:10;8.70;99.99